Time;durP1;ratioP1;P1;durP2;ratioP2;P2;SDS_P1;SDS_P2;PMS_P1;PMS_P2;Temp;Humidity;BMP_temperature;BMP_pressure;BME280_temperature;BME280_humidity;BME280_pressure;Samples;Min_cycle;Max_cycle;Signal;HPM_P1;HPM_P2
2022/06/05 00:00:30;;;;;;;1.35;1.25;;;23.10;41.90;;;26.92;27.43;101968.28;5113805;28;20074;-21
2022/06/05 00:03:33;;;;;;;1.30;1.15;;;23.10;41.90;;;26.96;27.30;101978.72;5113092;28;20084;-20
2022/06/05 00:06:14;;;;;;;1.20;1.20;;;23.10;41.90;;;26.91;27.34;101980.84;5099874;28;20050;-20
2022/06/05 00:09:17;;;;;;;1.52;1.13;;;23.10;41.90;;;26.96;27.40;101983.19;5113099;28;20083;-20
2022/06/05 00:12:13;;;;;;;1.50;1.40;;;23.10;41.90;;;26.94;27.48;101971.72;5113018;28;20084;-20
2022/06/05 00:14:41;;;;;;;1.60;1.50;;;23.10;42.00;;;26.95;27.23;101976.13;5109521;28;20048;-20
2022/06/05 00:17:13;;;;;;;1.40;1.27;;;23.10;41.90;;;26.89;27.43;101968.50;5112673;28;20372;-20
2022/06/05 00:19:43;;;;;;;1.20;1.10;;;23.00;41.90;;;26.89;27.58;101960.47;5112557;28;20048;-21
2022/06/05 00:22:09;;;;;;;1.40;1.30;;;23.10;41.90;;;26.94;27.29;101963.66;5112799;28;20059;-20
2022/06/05 00:24:36;;;;;;;1.50;1.40;;;23.10;41.90;;;26.90;27.50;101965.72;5112737;28;20043;-20
2022/06/05 00:27:09;;;;;;;1.35;1.25;;;23.00;41.90;;;26.90;27.37;101963.03;5113793;28;20047;-20
2022/06/05 00:29:48;;;;;;;1.42;1.33;;;23.00;41.90;;;26.90;27.43;101954.97;5066249;28;20131;-20
2022/06/05 00:32:29;;;;;;;1.45;1.35;;;23.10;41.90;;;26.86;27.30;101950.78;5116237;28;20437;-20
2022/06/05 00:34:56;;;;;;;1.27;1.17;;;23.00;41.90;;;26.91;27.50;101945.09;5098677;28;20050;-20
2022/06/05 00:37:46;;;;;;;1.55;1.45;;;23.00;41.90;;;26.92;27.39;101939.63;5116129;28;20527;-21
2022/06/05 00:40:29;;;;;;;1.20;1.10;;;23.10;41.90;;;26.88;27.35;101945.31;5116510;28;20047;-20
2022/06/05 00:42:57;;;;;;;1.20;1.20;;;23.00;41.90;;;26.88;27.44;101935.44;5116798;28;20095;-20
2022/06/05 00:45:23;;;;;;;1.10;1.00;;;23.00;41.90;;;26.91;27.48;101948.63;5098079;28;20047;-21
2022/06/05 00:47:49;;;;;;;1.30;1.20;;;23.00;41.90;;;26.90;27.30;101938.88;5097565;28;20082;-20
2022/06/05 00:50:22;;;;;;;1.27;1.17;;;23.00;41.90;;;26.86;27.64;101921.25;5116179;28;20201;-20
2022/06/05 00:52:56;;;;;;;1.17;1.13;;;23.00;41.90;;;26.90;27.41;101933.50;5097835;28;20079;-20
2022/06/05 00:55:25;;;;;;;1.20;1.13;;;23.00;41.90;;;26.87;27.31;101924.81;5116001;28;20039;-20
2022/06/05 00:57:53;;;;;;;1.40;1.30;;;23.00;42.00;;;26.90;27.57;101933.50;5116242;28;20131;-20
2022/06/05 01:00:31;;;;;;;1.30;1.20;;;23.00;41.90;;;26.89;27.38;101926.41;5114642;28;20050;-20
2022/06/05 01:02:59;;;;;;;1.45;1.35;;;23.00;41.90;;;26.89;27.46;101925.56;5112891;28;20126;-20
2022/06/05 01:05:27;;;;;;;1.13;1.13;;;23.00;41.90;;;26.91;27.29;101926.31;5097872;28;20467;-20
2022/06/05 01:07:53;;;;;;;1.30;1.20;;;23.00;41.90;;;26.88;27.36;101923.84;5115684;28;20047;-20
2022/06/05 01:10:22;;;;;;;1.38;1.27;;;23.00;41.90;;;26.90;27.48;101925.47;5115749;28;20103;-20
2022/06/05 01:13:07;;;;;;;1.23;1.17;;;23.00;41.90;;;26.88;27.56;101919.34;5097511;28;20100;-20
2022/06/05 01:16:05;;;;;;;1.20;1.10;;;23.00;41.90;;;26.87;27.50;101928.34;5116054;28;20406;-21
2022/06/05 01:19:31;;;;;;;1.30;1.20;;;23.00;41.90;;;26.92;27.40;101930.72;5094027;28;20119;-20
2022/06/05 01:22:21;;;;;;;1.60;1.50;;;23.00;41.90;;;26.89;27.49;101921.03;5047934;28;20064;-20
2022/06/05 01:25:14;;;;;;;1.70;1.60;;;23.00;41.90;;;26.87;27.37;101911.41;5116018;28;20052;-20
2022/06/05 01:27:44;;;;;;;1.50;1.40;;;23.00;41.90;;;26.85;27.47;101903.47;5115568;28;20090;-20
2022/06/05 01:30:22;;;;;;;1.35;1.25;;;23.00;42.40;;;26.83;27.43;101899.16;5115597;28;20122;-20
2022/06/05 01:33:08;;;;;;;1.33;1.23;;;23.00;41.90;;;26.87;27.60;101896.16;5115504;28;20356;-20
2022/06/05 01:35:45;;;;;;;1.20;1.10;;;23.00;41.90;;;26.88;27.44;101897.00;5115522;28;20043;-21
2022/06/05 01:38:23;;;;;;;1.30;1.20;;;23.00;41.90;;;26.83;27.19;101888.44;5096271;28;20138;-20
2022/06/05 01:40:55;;;;;;;1.10;1.10;;;23.00;41.90;;;26.84;27.34;101890.16;5115429;28;20043;-20
2022/06/05 01:43:27;;;;;;;1.40;1.27;;;23.00;41.90;;;26.86;27.64;101896.25;5095743;28;20126;-20
2022/06/05 01:46:06;;;;;;;1.30;1.20;;;23.00;41.90;;;26.82;27.32;101886.72;5114376;28;20048;-19
2022/06/05 01:48:50;;;;;;;1.40;1.30;;;23.00;41.90;;;26.85;27.56;101887.34;5097563;28;20043;-20
2022/06/05 01:51:33;;;;;;;1.50;1.40;;;22.90;41.90;;;26.83;27.63;101877.69;5097509;28;20038;-20
2022/06/05 01:54:18;;;;;;;1.20;1.10;;;23.00;41.90;;;26.87;27.51;101884.56;5097127;28;20088;-20
2022/06/05 01:56:51;;;;;;;1.27;1.20;;;23.00;41.90;;;26.83;27.44;101875.88;5114896;28;20092;-21
2022/06/05 01:59:50;;;;;;;1.27;1.17;;;23.00;41.90;;;26.82;27.35;101874.16;5113730;28;20092;-20
2022/06/05 02:02:25;;;;;;;1.48;1.38;;;23.00;42.00;;;26.82;27.35;101871.47;5084133;28;20047;-20
2022/06/05 02:05:07;;;;;;;1.40;1.30;;;23.00;42.00;;;26.84;27.27;101868.69;5094819;28;20051;-20
2022/06/05 02:07:40;;;;;;;1.30;1.20;;;23.00;41.90;;;26.83;27.26;101872.31;5115063;28;20047;-20
2022/06/05 02:10:26;;;;;;;1.58;1.48;;;22.90;41.90;;;26.84;27.61;101888.31;5113621;28;20075;-20
2022/06/05 02:12:54;;;;;;;1.38;1.27;;;23.00;41.90;;;26.84;27.44;101876.72;5096797;28;20517;-21
2022/06/05 02:15:21;;;;;;;1.30;1.20;;;23.00;41.90;;;26.85;27.53;101871.25;5113349;28;20142;-20
2022/06/05 02:17:48;;;;;;;1.23;1.13;;;23.00;41.90;;;26.84;27.23;101869.53;5113728;28;20097;-20
2022/06/05 02:20:14;;;;;;;1.25;1.17;;;23.00;42.00;;;26.85;27.62;101865.00;5114461;28;20036;-20
2022/06/05 02:22:46;;;;;;;1.30;1.20;;;23.00;42.00;;;26.84;27.43;101869.53;5114929;28;20353;-20
2022/06/05 02:25:13;;;;;;;1.10;1.10;;;22.90;41.90;;;26.83;27.38;101869.63;5096890;28;20043;-21
2022/06/05 02:27:39;;;;;;;1.40;1.30;;;22.90;41.90;;;26.81;27.54;101864.38;5114555;28;20046;-20
2022/06/05 02:30:10;;;;;;;1.50;1.10;;;22.90;41.90;;;26.83;27.54;101864.28;5095760;28;20063;-20
2022/06/05 02:33:03;;;;;;;1.40;1.30;;;22.90;41.90;;;26.84;27.48;101847.22;5113232;28;20044;-21
2022/06/05 02:36:06;;;;;;;1.30;1.20;;;22.90;41.90;;;26.76;27.49;101837.91;5114572;28;20047;-20
2022/06/05 02:38:36;;;;;;;1.23;1.20;;;22.90;41.90;;;26.83;27.37;101848.19;5114116;28;20035;-20
2022/06/05 02:41:36;;;;;;;1.38;1.27;;;22.90;41.90;;;26.83;27.42;101861.59;5114396;28;20046;-21
2022/06/05 02:44:30;;;;;;;1.40;1.30;;;22.90;42.00;;;26.79;27.35;101860.94;5059630;28;20490;-20
2022/06/05 02:47:28;;;;;;;1.40;1.30;;;22.90;41.90;;;26.81;27.36;101872.44;5114500;28;20447;-20
2022/06/05 02:50:15;;;;;;;1.30;1.20;;;22.90;41.90;;;26.79;27.41;101864.47;5112973;28;20069;-20
2022/06/05 02:52:41;;;;;;;1.50;1.40;;;22.90;42.00;;;26.82;27.36;101859.91;5096280;28;20044;-21
2022/06/05 02:55:18;;;;;;;1.30;1.20;;;22.90;42.50;;;26.79;27.66;101855.59;5095909;28;20051;-21
2022/06/05 02:57:45;;;;;;;1.40;1.30;;;22.90;42.00;;;26.76;27.50;101845.94;5113810;28;20051;-20
2022/06/05 03:00:24;;;;;;;1.40;1.10;;;22.90;42.00;;;26.76;27.27;101863.84;5114062;28;20047;-21
2022/06/05 03:05:36;;;;;;;1.13;1.13;;;22.90;41.90;;;26.79;27.40;101860.94;5113934;28;20054;-20
2022/06/05 03:08:04;;;;;;;1.45;1.35;;;22.90;41.90;;;26.79;27.39;101850.22;5113793;28;20047;-21
2022/06/05 03:10:30;;;;;;;1.00;1.00;;;22.90;41.90;;;26.76;27.45;101845.94;5096115;28;20047;-20
2022/06/05 03:12:55;;;;;;;1.13;1.10;;;22.90;41.90;;;26.81;27.67;101853.66;5113886;28;20541;-20
2022/06/05 03:15:21;;;;;;;1.50;1.40;;;23.00;41.90;;;26.85;27.33;101849.78;5113829;28;20382;-20
2022/06/05 03:17:48;;;;;;;1.42;1.33;;;23.00;41.90;;;26.86;27.49;101867.59;5113386;28;20364;-20
2022/06/05 03:20:16;;;;;;;1.40;1.30;;;23.00;41.80;;;26.83;27.46;101858.91;5095760;28;20051;-20
2022/06/05 03:22:42;;;;;;;1.73;1.63;;;23.00;41.80;;;26.84;27.22;101863.31;5113721;28;20050;-20
2022/06/05 03:25:14;;;;;;;1.50;1.40;;;23.00;41.70;;;26.84;27.37;101855.28;5113612;28;20126;-20
2022/06/05 03:27:39;;;;;;;1.40;1.30;;;23.00;41.70;;;26.85;27.35;101848.91;5113822;28;20040;-19
2022/06/05 03:30:06;;;;;;;1.30;1.20;;;23.10;41.80;;;26.86;27.57;101848.81;5113547;28;20046;-21
2022/06/05 03:32:32;;;;;;;1.40;1.30;;;23.10;41.70;;;26.84;27.51;101841.84;5113472;28;20058;-20
2022/06/05 03:34:57;;;;;;;1.40;1.30;;;23.10;41.70;;;26.89;27.43;101842.38;5113473;28;20044;-20
2022/06/05 03:37:24;;;;;;;1.60;1.50;;;23.10;41.70;;;26.93;27.34;101849.22;5113561;28;20538;-20
2022/06/05 03:39:50;;;;;;;1.60;1.50;;;23.10;41.60;;;26.93;27.22;101849.22;5113445;28;20028;-20
2022/06/05 03:42:15;;;;;;;1.40;1.30;;;23.20;41.60;;;26.98;27.38;101860.47;5113376;28;20054;-20
2022/06/05 03:44:42;;;;;;;1.55;1.45;;;23.20;41.60;;;26.97;27.36;101853.41;5113592;28;20464;-20
2022/06/05 03:47:10;;;;;;;1.33;1.23;;;23.20;41.50;;;27.03;27.31;101852.97;5113273;28;20387;-20
2022/06/05 03:49:36;;;;;;;1.42;1.33;;;23.30;41.40;;;27.05;27.06;101850.16;5113229;28;20071;-20
2022/06/05 03:52:07;;;;;;;1.95;1.77;;;23.40;41.30;;;27.13;27.41;101856.72;5093912;28;20051;-21
2022/06/05 03:54:33;;;;;;;1.48;1.38;;;23.40;41.20;;;27.16;27.25;101851.13;5113765;28;20050;-21
2022/06/05 03:57:01;;;;;;;1.55;1.45;;;23.50;41.10;;;27.20;26.97;101848.19;5113164;28;20360;-21
2022/06/05 03:59:27;;;;;;;1.50;1.40;;;23.50;41.10;;;27.23;27.07;101848.84;5111516;28;20050;-20
2022/06/05 04:01:52;;;;;;;1.70;1.60;;;23.60;41.00;;;27.28;27.09;101851.16;5112534;28;20048;-20
2022/06/05 04:04:18;;;;;;;1.65;1.55;;;23.60;41.00;;;27.29;27.23;101850.25;5113113;28;20472;-20
2022/06/05 04:06:44;;;;;;;1.33;1.23;;;23.60;40.90;;;27.32;27.17;101844.66;5113162;28;20383;-21
2022/06/05 04:09:10;;;;;;;1.40;1.30;;;23.70;40.90;;;27.35;27.02;101836.38;5094196;28;20126;-21
2022/06/05 04:11:38;;;;;;;1.70;1.60;;;23.70;40.80;;;27.39;27.16;101853.13;5113366;28;20046;-21
2022/06/05 04:14:05;;;;;;;1.50;1.20;;;23.70;40.80;;;27.42;27.08;101851.06;5113030;28;20047;-20
2022/06/05 04:16:32;;;;;;;1.15;1.10;;;23.80;40.80;;;27.42;26.78;101848.38;5094706;28;20142;-20
2022/06/05 04:19:00;;;;;;;1.40;1.27;;;23.80;40.80;;;27.49;26.89;101854.13;5112442;28;20471;-20
2022/06/05 04:21:30;;;;;;;1.42;1.30;;;23.90;40.70;;;27.49;26.90;101843.41;5112891;28;20195;-20
2022/06/05 04:23:57;;;;;;;1.53;1.43;;;23.90;40.70;;;27.56;26.97;101847.31;5113225;28;20067;-20
2022/06/05 04:26:27;;;;;;;1.30;1.30;;;24.00;41.20;;;27.57;27.03;101843.69;5113128;28;20274;-20
2022/06/05 04:28:54;;;;;;;1.13;1.13;;;24.00;40.60;;;27.62;26.72;101848.72;5113093;28;20055;-20
2022/06/05 04:31:27;;;;;;;1.38;1.27;;;24.00;40.60;;;27.62;26.73;101841.50;5112793;28;20048;-20
2022/06/05 04:33:57;;;;;;;1.27;1.17;;;24.00;40.50;;;27.69;27.07;101836.53;5113274;28;20096;-20
2022/06/05 04:36:23;;;;;;;1.40;1.30;;;24.10;40.60;;;27.72;26.62;101833.63;5077637;28;20043;-20
2022/06/05 04:38:49;;;;;;;1.40;1.30;;;24.10;40.60;;;27.75;26.81;101827.13;5112547;28;20055;-20
2022/06/05 04:41:15;;;;;;;1.95;1.50;;;24.10;40.60;;;27.77;26.67;101823.38;5112971;28;20062;-20
2022/06/05 04:43:41;;;;;;;1.20;1.10;;;24.10;40.50;;;27.76;26.64;101810.88;5112647;28;20047;-20
2022/06/05 04:46:08;;;;;;;1.27;1.17;;;24.10;40.40;;;27.83;26.75;101822.91;5112745;28;20054;-20
2022/06/05 04:48:34;;;;;;;1.40;1.30;;;24.20;40.40;;;27.83;26.58;101812.16;5093932;28;20039;-20
2022/06/05 04:51:05;;;;;;;1.45;1.35;;;24.20;40.40;;;27.85;26.80;101818.25;5112527;28;20538;-19
2022/06/05 04:53:31;;;;;;;1.50;1.40;;;24.20;40.30;;;27.93;26.61;101823.06;5112522;28;20048;-20
2022/06/05 04:55:57;;;;;;;1.42;1.33;;;24.30;40.30;;;27.93;26.42;101814.16;5112747;28;20032;-20
2022/06/05 04:58:23;;;;;;;1.40;1.30;;;24.40;40.20;;;27.99;26.37;101814.53;5112391;28;20489;-20
2022/06/05 05:00:48;;;;;;;1.50;1.40;;;24.40;40.20;;;28.02;26.46;101810.78;5112399;28;20141;-20
2022/06/05 05:03:14;;;;;;;1.55;1.45;;;24.40;40.10;;;28.05;26.27;101800.63;5112960;28;20131;-20
2022/06/05 05:05:41;;;;;;;1.40;1.30;;;24.40;40.00;;;28.07;26.50;101797.81;5112426;28;20039;-20
2022/06/05 05:08:07;;;;;;;1.25;1.15;;;24.50;40.00;;;28.08;26.58;101786.97;5112224;28;20036;-20
2022/06/05 05:10:33;;;;;;;1.50;1.40;;;24.50;40.00;;;28.12;26.33;101781.31;5112250;28;20410;-20
2022/06/05 05:12:58;;;;;;;1.52;1.42;;;24.50;39.90;;;28.19;26.67;101799.53;5112221;28;20043;-20
2022/06/05 05:15:24;;;;;;;1.30;1.20;;;24.60;40.00;;;28.20;26.37;101790.50;5115324;28;20123;-20
2022/06/05 05:17:50;;;;;;;1.33;1.23;;;24.60;39.90;;;28.20;26.23;101785.13;5116166;28;20048;-20
2022/06/05 05:20:16;;;;;;;1.40;1.30;;;24.60;39.80;;;28.26;26.23;101790.00;5115481;28;20051;-20
2022/06/05 05:22:43;;;;;;;1.95;1.80;;;24.60;39.80;;;28.28;26.15;101793.47;5115913;28;20096;-20
2022/06/05 05:25:11;;;;;;;1.40;1.30;;;24.60;39.80;;;28.27;26.01;101780.97;5115632;28;20039;-20
2022/06/05 05:27:37;;;;;;;1.70;1.60;;;24.70;39.80;;;28.36;26.35;101782.06;5115808;28;20486;-20
2022/06/05 05:30:06;;;;;;;1.27;1.17;;;24.70;39.70;;;28.37;26.34;101778.41;5115480;28;20047;-20
2022/06/05 05:32:32;;;;;;;1.73;1.63;;;24.70;39.70;;;28.38;26.15;101772.03;5115449;28;20036;-20
2022/06/05 05:34:58;;;;;;;1.48;1.38;;;24.80;39.70;;;28.43;26.07;101786.00;5115349;28;20047;-20
2022/06/05 05:37:25;;;;;;;1.38;1.27;;;24.80;39.60;;;28.49;26.27;101791.88;5115478;28;20044;-20
2022/06/05 05:42:35;;;;;;;1.75;1.65;;;24.90;39.50;;;28.55;26.00;101773.41;5115521;28;20089;-20
2022/06/05 05:45:01;;;;;;;1.60;1.50;;;24.90;39.40;;;28.57;26.04;101759.88;5115293;28;20044;-21
2022/06/05 05:47:30;;;;;;;1.48;1.38;;;25.00;39.40;;;28.57;25.87;101759.88;5115193;28;20464;-20
2022/06/05 05:50:10;;;;;;;1.25;1.15;;;25.00;39.40;;;28.59;25.75;101761.44;5115279;28;20092;-21
2022/06/05 05:52:37;;;;;;;1.48;1.38;;;25.00;39.30;;;28.67;25.81;101759.94;5115515;28;20044;-20
2022/06/05 05:55:03;;;;;;;1.30;1.20;;;25.00;39.30;;;28.68;25.79;101759.81;5115110;28;20097;-20
2022/06/05 05:57:30;;;;;;;1.30;1.20;;;25.00;39.30;;;28.71;26.05;101758.75;5115095;28;20373;-21
2022/06/05 05:59:57;;;;;;;1.00;1.00;;;25.00;39.40;;;28.71;25.64;101764.13;5114888;28;20043;-20
2022/06/05 06:02:25;;;;;;;1.25;1.20;;;25.00;39.40;;;28.72;25.92;101749.66;5115213;28;20071;-20
2022/06/05 06:04:52;;;;;;;1.50;1.40;;;25.00;39.30;;;28.76;25.89;101764.59;5114882;28;20047;-20
2022/06/05 06:07:19;;;;;;;1.58;1.48;;;25.10;39.30;;;28.78;25.87;101762.63;5114959;28;20495;-21
2022/06/05 06:09:45;;;;;;;1.45;1.35;;;25.10;39.40;;;28.80;25.80;101766.03;5114560;28;20082;-20
2022/06/05 06:12:12;;;;;;;1.60;1.50;;;25.10;39.30;;;28.84;25.58;101770.22;5115052;28;20531;-20
2022/06/05 06:14:39;;;;;;;1.40;1.30;;;25.10;39.30;;;28.82;25.77;101767.66;5115023;28;20057;-20
2022/06/05 06:17:05;;;;;;;1.02;1.02;;;25.20;39.30;;;28.85;25.74;101768.38;5114589;28;20062;-20
2022/06/05 06:19:31;;;;;;;1.40;1.30;;;25.20;39.30;;;28.88;25.54;101774.34;5114484;28;20421;-20
2022/06/05 06:21:57;;;;;;;1.35;1.25;;;25.20;39.20;;;28.93;25.70;101782.06;5114715;28;20105;-20
2022/06/05 06:24:23;;;;;;;1.30;1.20;;;25.20;39.10;;;28.95;25.69;101777.41;5114163;28;20509;-20
2022/06/05 06:26:49;;;;;;;1.20;1.10;;;25.20;39.10;;;28.99;25.55;101785.09;5114599;28;20039;-20
2022/06/05 06:29:15;;;;;;;1.40;1.30;;;25.20;39.10;;;29.02;25.46;101792.09;5114545;28;20055;-20
2022/06/05 06:31:42;;;;;;;1.45;1.35;;;25.30;39.10;;;28.97;25.56;101781.69;5114424;28;20356;-20
2022/06/05 06:34:08;;;;;;;1.20;1.10;;;25.30;39.10;;;29.03;25.37;101785.69;5114568;28;20039;-20
2022/06/05 06:36:34;;;;;;;1.58;1.48;;;25.30;39.00;;;29.04;25.37;101779.34;5114749;28;20546;-20
2022/06/05 06:39:00;;;;;;;1.25;1.23;;;25.40;39.00;;;29.08;25.27;101766.47;5114605;28;20044;-20
2022/06/05 06:41:26;;;;;;;1.38;1.27;;;25.40;39.00;;;29.10;25.43;101765.38;5114836;28;20088;-20
2022/06/05 06:43:53;;;;;;;1.50;1.40;;;25.40;39.00;;;29.15;25.41;101765.84;5114437;28;20474;-21
2022/06/05 06:46:19;;;;;;;1.00;1.00;;;25.40;38.90;;;29.14;25.31;101769.53;5114327;28;20134;-20
2022/06/05 06:48:46;;;;;;;1.27;1.17;;;25.40;38.90;;;29.18;25.10;101770.16;5114165;28;20047;-20
2022/06/05 06:51:13;;;;;;;1.38;1.27;;;25.40;38.90;;;29.18;25.25;101767.47;5114150;28;20181;-21
2022/06/05 06:53:41;;;;;;;1.85;1.40;;;25.50;38.90;;;29.22;25.13;101766.25;5114258;28;20051;-20
2022/06/05 06:56:10;;;;;;;1.52;1.42;;;25.50;38.80;;;29.23;25.11;101765.22;5114152;28;20039;-20
2022/06/05 06:58:36;;;;;;;1.20;1.15;;;25.50;38.80;;;29.29;25.18;101766.59;5113899;28;20048;-20
2022/06/05 07:01:02;;;;;;;1.23;1.20;;;25.50;38.80;;;29.25;25.34;101757.88;5114070;28;20036;-20
2022/06/05 07:03:28;;;;;;;1.30;1.20;;;25.60;38.80;;;29.29;25.28;101758.50;5113931;28;20078;-20
2022/06/05 07:05:54;;;;;;;1.42;1.33;;;25.60;38.80;;;29.34;24.96;101758.97;5094129;28;20383;-21
2022/06/05 07:08:20;;;;;;;1.40;1.30;;;25.60;38.80;;;29.30;25.24;101757.50;5114227;28;20040;-20
2022/06/05 07:10:46;;;;;;;1.30;1.20;;;25.60;38.80;;;29.37;25.14;101758.72;5113907;28;20042;-20
2022/06/05 07:13:11;;;;;;;1.45;1.35;;;25.60;38.80;;;29.33;25.12;101746.47;5113905;28;20043;-20
2022/06/05 07:15:39;;;;;;;1.60;1.50;;;25.60;38.70;;;29.34;25.00;101740.09;5113732;28;20035;-20
2022/06/05 07:18:07;;;;;;;1.40;1.30;;;25.60;38.70;;;29.34;25.04;101737.41;5112301;28;20044;-20
2022/06/05 07:20:35;;;;;;;1.30;1.20;;;25.60;38.70;;;29.42;24.95;101744.81;5113549;28;20494;-20
2022/06/05 07:23:02;;;;;;;1.27;1.17;;;25.60;38.60;;;29.40;25.05;101736.03;5113694;28;20047;-20
2022/06/05 07:25:29;;;;;;;1.23;1.13;;;25.60;38.70;;;29.39;25.09;101727.09;5113670;28;20051;-21
2022/06/05 07:27:55;;;;;;;1.13;1.02;;;25.60;38.60;;;29.41;25.09;101729.66;5113697;28;20047;-20
2022/06/05 07:30:21;;;;;;;1.40;1.30;;;25.60;38.60;;;29.43;24.84;101731.22;5113418;28;20387;-20
2022/06/05 07:32:47;;;;;;;1.70;1.20;;;25.60;38.60;;;29.49;24.78;101732.56;5095848;28;20044;-20
2022/06/05 07:35:14;;;;;;;1.63;1.45;;;25.60;38.50;;;29.49;24.70;101729.88;5114167;28;20516;-20
2022/06/05 07:37:41;;;;;;;1.27;1.17;;;25.70;38.50;;;29.47;24.80;101721.03;5112460;28;20051;-20
2022/06/05 07:40:08;;;;;;;1.38;1.27;;;25.70;38.50;;;29.52;25.00;101726.88;5113223;28;20082;-21
2022/06/05 07:42:39;;;;;;;1.30;1.20;;;25.70;38.50;;;29.50;24.65;101715.41;5113426;28;20088;-20
2022/06/05 07:45:07;;;;;;;1.05;1.05;;;25.70;38.60;;;29.52;24.89;101716.13;5114065;28;20079;-20
2022/06/05 07:47:33;;;;;;;1.40;1.30;;;25.70;38.50;;;29.54;24.84;101719.56;5113306;28;20031;-20
2022/06/05 07:50:01;;;;;;;1.50;1.40;;;25.70;38.50;;;29.48;24.92;101706.59;5114003;28;20462;-20
2022/06/05 07:55:12;;;;;;;1.40;1.30;;;25.70;38.50;;;29.52;24.87;101702.63;5113609;28;20051;-20
2022/06/05 07:57:38;;;;;;;1.40;1.30;;;25.70;38.50;;;29.53;24.70;101702.50;5113187;28;20092;-20
2022/06/05 08:00:08;;;;;;;1.40;1.30;;;25.70;38.50;;;29.53;24.72;101698.97;5112313;28;20363;-20
2022/06/05 08:02:36;;;;;;;1.20;1.10;;;25.70;38.50;;;29.51;24.87;101687.47;5095319;28;20046;-20
2022/06/05 08:05:04;;;;;;;1.08;1.08;;;25.70;38.60;;;29.49;24.98;101690.31;5113183;28;20388;-20
2022/06/05 08:07:32;;;;;;;1.40;1.30;;;25.60;38.60;;;29.51;24.71;101698.25;5113120;28;20044;-19
2022/06/05 08:10:00;;;;;;;1.25;1.17;;;25.60;38.60;;;29.50;24.85;101694.72;5113090;28;20043;-20
2022/06/05 08:12:32;;;;;;;1.10;1.10;;;25.60;38.60;;;29.45;24.98;101696.06;5112966;28;20043;-21
2022/06/05 08:15:12;;;;;;;1.50;1.40;;;25.60;38.60;;;29.46;25.08;101700.50;5113062;28;20471;-20
2022/06/05 08:17:39;;;;;;;1.13;1.10;;;25.60;38.60;;;29.46;24.92;101690.56;5112691;28;20036;-20
2022/06/05 08:20:08;;;;;;;1.20;1.20;;;25.60;38.60;;;29.45;24.97;101688.84;5112818;28;20134;-20
2022/06/05 08:22:35;;;;;;;1.35;1.25;;;25.60;38.60;;;29.44;24.80;101689.00;5112975;28;20383;-21
2022/06/05 08:25:01;;;;;;;1.00;1.00;;;25.60;38.70;;;29.41;24.77;101687.41;5112939;28;20475;-20
2022/06/05 08:27:29;;;;;;;1.77;1.65;;;25.60;38.80;;;29.41;25.00;101687.41;5113387;28;20459;-21
2022/06/05 08:29:56;;;;;;;1.17;1.17;;;25.50;38.80;;;29.39;24.92;101694.78;5112655;28;20047;-20
2022/06/05 08:32:28;;;;;;;1.27;1.17;;;25.50;38.80;;;29.33;25.09;101688.06;5112807;28;20040;-20
2022/06/05 08:34:57;;;;;;;1.58;1.48;;;25.50;38.90;;;29.32;25.04;101694.44;5112721;28;20131;-20
2022/06/05 08:43:26;;;;;;;1.40;1.30;;;25.40;39.00;;;29.27;25.16;101690.41;5112760;28;20047;-21
2022/06/05 08:46:18;;;;;;;1.20;1.13;;;25.30;39.00;;;29.25;25.08;101690.53;5112703;28;20043;-20
2022/06/05 08:48:53;;;;;;;1.10;1.08;;;25.30;39.10;;;29.18;25.24;101679.44;5095806;28;20042;-20
2022/06/05 08:51:40;;;;;;;1.30;1.20;;;25.30;39.10;;;29.16;25.01;101683.22;5116510;28;20044;-20
2022/06/05 08:54:17;;;;;;;1.50;1.40;;;25.20;39.10;;;29.13;25.12;101688.88;5116179;28;20074;-21
2022/06/05 08:56:58;;;;;;;1.40;1.30;;;25.20;39.20;;;29.11;25.41;101682.75;5116283;28;20042;-20
2022/06/05 08:59:28;;;;;;;;;;;25.20;39.30;;;29.26;25.21;101686.03;5116504;28;20142;-20
2022/06/05 09:02:36;;;;;;;1.55;1.45;;;25.10;39.30;;;29.08;25.16;101669.53;5081325;28;19912;-20
2022/06/05 09:05:16;;;;;;;1.30;1.20;;;25.10;39.30;;;29.08;25.40;101674.94;5114643;28;20056;-20
2022/06/05 09:07:47;;;;;;;1.40;1.30;;;25.10;39.40;;;29.02;25.36;101674.47;5097865;28;20039;-20
2022/06/05 09:10:18;;;;;;;1.30;1.20;;;25.10;39.40;;;29.02;25.38;101670.94;5116108;28;20047;-20
2022/06/05 09:13:28;;;;;;;1.13;1.10;;;25.00;39.40;;;29.00;25.30;101668.38;5098111;28;20047;-21
2022/06/05 09:16:06;;;;;;;1.15;1.05;;;25.00;39.50;;;28.92;25.58;101660.06;5086634;28;20097;-21
2022/06/05 09:18:37;;;;;;;1.58;1.48;;;25.00;39.50;;;28.93;25.56;101659.06;5115566;28;20435;-20
2022/06/05 09:21:31;;;;;;;1.30;1.23;;;25.00;39.60;;;28.91;25.27;101658.34;5115735;28;20046;-20
2022/06/05 09:24:16;;;;;;;1.20;1.10;;;25.00;39.60;;;28.88;25.48;101653.22;5115609;28;20043;-20
2022/06/05 09:27:10;;;;;;;1.40;1.30;;;24.90;39.60;;;28.86;25.44;101659.72;5097976;28;20051;-21
2022/06/05 09:29:56;;;;;;;1.35;1.25;;;24.90;39.70;;;28.80;25.50;101640.41;5096722;28;20487;-20
2022/06/05 09:32:55;;;;;;;1.90;1.80;;;24.90;39.70;;;28.77;25.50;101626.38;5097037;28;20050;-20
2022/06/05 09:35:29;;;;;;;1.40;1.30;;;24.90;39.80;;;28.79;25.52;101630.63;5097043;28;20101;-20
2022/06/05 09:38:05;;;;;;;1.30;1.20;;;24.90;39.80;;;28.71;25.89;101618.81;5115228;28;20056;-20
2022/06/05 09:40:39;;;;;;;1.52;1.42;;;24.80;39.80;;;28.74;25.52;101615.84;5097271;28;20044;-20
2022/06/05 09:43:28;;;;;;;1.15;1.10;;;24.80;39.80;;;28.71;25.69;101608.88;5114043;28;20055;-20
2022/06/05 09:46:09;;;;;;;1.17;1.17;;;24.80;39.80;;;28.68;25.59;101587.59;5096815;28;20043;-20
2022/06/05 09:48:54;;;;;;;1.60;1.50;;;24.80;39.80;;;28.72;25.60;101590.88;5114978;28;20044;-21
2022/06/05 09:51:20;;;;;;;1.40;1.30;;;24.80;39.80;;;28.69;25.83;101564.25;5115152;28;20035;-20
2022/06/05 09:54:06;;;;;;;1.50;1.40;;;24.80;39.80;;;28.65;25.65;101571.72;5115197;28;20047;-21
2022/06/05 10:00:14;;;;;;;1.50;1.40;;;24.80;39.80;;;28.68;25.80;101566.06;5112714;28;20497;-20
2022/06/05 10:02:43;;;;;;;1.20;1.10;;;24.80;39.80;;;28.70;25.86;101558.75;5097287;28;20083;-20
2022/06/05 10:05:34;;;;;;;1.20;1.20;;;24.80;39.80;;;28.68;25.71;101546.41;5113800;28;20044;-20
2022/06/05 10:08:19;;;;;;;1.25;1.20;;;24.80;39.80;;;28.67;25.72;101534.78;5115080;28;20044;-20
2022/06/05 10:10:47;;;;;;;1.20;1.10;;;24.80;39.80;;;28.68;25.86;101531.09;5115132;28;20044;-20
2022/06/05 10:13:34;;;;;;;1.30;1.20;;;24.80;39.80;;;28.66;25.75;101532.22;5114893;28;20124;-20
2022/06/05 10:16:19;;;;;;;1.30;1.25;;;24.80;39.80;;;28.63;25.96;101526.13;5114608;28;20044;-20
2022/06/05 10:18:58;;;;;;;1.30;1.20;;;24.80;39.80;;;28.62;25.94;101516.34;5096692;28;20130;-20
2022/06/05 10:21:35;;;;;;;1.42;1.33;;;24.80;39.80;;;28.60;25.84;101510.25;5112630;28;20040;-20
2022/06/05 10:24:38;;;;;;;1.30;1.20;;;24.80;39.80;;;28.64;25.65;101521.59;5096443;28;20046;-20
2022/06/05 10:27:04;;;;;;;1.40;1.30;;;24.80;39.80;;;28.71;25.70;101530.84;5114565;28;20531;-20
2022/06/05 10:29:47;;;;;;;2.28;1.40;;;24.80;39.80;;;28.67;25.91;101533.91;5095473;28;20048;-19
2022/06/05 10:32:47;;;;;;;1.67;1.58;;;24.80;39.80;;;28.63;25.71;101520.75;5112138;28;20140;-20
2022/06/05 10:35:21;;;;;;;1.53;1.37;;;24.80;39.80;;;28.64;25.71;101524.28;5114546;28;20051;-20
2022/06/05 10:37:56;;;;;;;1.88;1.73;;;24.80;39.80;;;28.61;25.96;101517.31;5114813;28;20051;-20
2022/06/05 10:40:44;;;;;;;1.20;1.20;;;24.80;39.80;;;28.64;25.84;101508.97;5093936;28;20052;-20
2022/06/05 10:43:20;;;;;;;1.50;1.40;;;24.80;39.80;;;28.61;25.73;101506.53;5113440;28;20048;-20
2022/06/05 10:45:56;;;;;;;1.50;1.40;;;24.80;39.80;;;28.60;25.74;101498.59;5113399;28;20044;-20
2022/06/05 10:48:42;;;;;;;1.40;1.30;;;24.70;39.80;;;28.58;25.76;101495.19;5096034;28;20067;-20
2022/06/05 10:51:48;;;;;;;1.33;1.23;;;24.70;39.80;;;28.61;25.75;101493.09;5096482;28;20055;-20
2022/06/05 10:54:34;;;;;;;1.50;1.40;;;24.80;40.10;;;28.61;25.89;101494.94;5113228;28;20054;-20